Time;durP1;ratioP1;P1;durP2;ratioP2;P2;SDS_P1;SDS_P2;PMS_P1;PMS_P2;Temp;Humidity;BMP_temperature;BMP_pressure;BME280_temperature;BME280_humidity;BME280_pressure;Samples;Min_cycle;Max_cycle;Signal;HPM_P1;HPM_P2
2022/05/13 00:01:23;;;;;;;9.27;1.67;;;;;;;;;;5067431;28;20052;-59
2022/05/13 00:03:50;;;;;;;6.95;1.40;;;;;;;;;;5067509;28;20045;-59
2022/05/13 00:06:16;;;;;;;10.20;1.60;;;;;;;;;;5066884;28;20057;-59
2022/05/13 00:08:43;;;;;;;5.07;1.38;;;;;;;;;;5067355;28;20061;-59
2022/05/13 00:11:09;;;;;;;7.32;1.35;;;;;;;;;;5067872;28;21036;-59
2022/05/13 00:13:36;;;;;;;7.72;1.30;;;;;;;;;;5067078;28;20135;-59
2022/05/13 00:16:04;;;;;;;5.95;1.75;;;;;;;;;;5066947;28;20111;-59
2022/05/13 00:18:30;;;;;;;7.97;1.77;;;;;;;;;;5066551;28;20053;-59
2022/05/13 00:20:58;;;;;;;6.18;1.60;;;;;;;;;;5067255;28;20053;-59
2022/05/13 00:23:25;;;;;;;8.70;1.63;;;;;;;;;;5067157;28;20650;-59
2022/05/13 00:25:51;;;;;;;6.30;1.40;;;;;;;;;;5067765;28;20310;-59
2022/05/13 00:28:18;;;;;;;7.28;1.48;;;;;;;;;;5067053;28;20107;-59
2022/05/13 00:30:47;;;;;;;6.82;1.45;;;;;;;;;;5066404;28;20616;-59
2022/05/13 00:33:18;;;;;;;7.07;1.83;;;;;;;;;;5066855;28;20077;-59
2022/05/13 00:35:44;;;;;;;6.43;1.60;;;;;;;;;;5066547;28;20111;-59
2022/05/13 00:38:11;;;;;;;9.30;1.50;;;;;;;;;;5066502;28;20056;-59
2022/05/13 00:40:38;;;;;;;6.88;1.58;;;;;;;;;;5066182;28;20111;-59
2022/05/13 00:43:07;;;;;;;7.80;1.70;;;;;;;;;;5066714;28;20605;-59
2022/05/13 00:45:34;;;;;;;6.57;1.65;;;;;;;;;;5067280;28;20949;-59
2022/05/13 00:48:00;;;;;;;10.32;2.15;;;;;;;;;;5065725;28;20474;-59
2022/05/13 00:50:28;;;;;;;7.10;1.50;;;;;;;;;;5066692;28;20056;-59
2022/05/13 00:52:54;;;;;;;8.82;1.80;;;;;;;;;;5067475;28;20053;-59
2022/05/13 00:55:26;;;;;;;8.48;1.83;;;;;;;;;;5070420;28;20088;-59
2022/05/13 00:57:53;;;;;;;9.55;2.10;;;;;;;;;;5070119;28;20057;-59
2022/05/13 01:00:19;;;;;;;10.32;1.80;;;;;;;;;;5070750;28;20121;-59
2022/05/13 01:02:46;;;;;;;6.88;1.50;;;;;;;;;;5069685;28;20061;-59
2022/05/13 01:05:13;;;;;;;7.90;1.60;;;;;;;;;;5049517;28;20498;-59
2022/05/13 01:07:40;;;;;;;8.20;1.85;;;;;;;;;;5050560;28;20060;-59
2022/05/13 01:10:08;;;;;;;8.02;1.55;;;;;;;;;;5058316;28;20044;-59
2022/05/13 01:12:36;;;;;;;11.27;1.60;;;;;;;;;;5070340;28;20519;-59
2022/05/13 01:15:06;;;;;;;10.55;2.17;;;;;;;;;;5069727;28;20103;-59
2022/05/13 01:20:24;;;;;;;10.05;2.35;;;;;;;;;;5069182;28;20133;-59
2022/05/13 01:22:52;;;;;;;11.55;2.20;;;;;;;;;;5070047;28;20521;-59
2022/05/13 01:25:19;;;;;;;10.10;1.90;;;;;;;;;;5070130;28;20088;-59
2022/05/13 01:27:46;;;;;;;8.67;1.80;;;;;;;;;;5069239;28;20048;-59
2022/05/13 01:30:15;;;;;;;10.80;2.17;;;;;;;;;;5069631;28;20295;-59
2022/05/13 01:32:41;;;;;;;11.20;2.15;;;;;;;;;;5069700;28;20126;-59
2022/05/13 01:35:08;;;;;;;10.82;2.13;;;;;;;;;;5069577;28;20165;-59
2022/05/13 01:37:35;;;;;;;12.93;2.45;;;;;;;;;;5069433;28;20110;-59
2022/05/13 01:40:03;;;;;;;9.70;1.95;;;;;;;;;;5068886;28;20581;-59
2022/05/13 01:42:30;;;;;;;11.30;1.95;;;;;;;;;;5069767;28;20097;-59
2022/05/13 01:44:57;;;;;;;14.30;2.28;;;;;;;;;;5068958;28;20057;-59
2022/05/13 01:47:24;;;;;;;12.35;2.50;;;;;;;;;;5069136;28;20103;-59
2022/05/13 01:49:54;;;;;;;18.17;3.08;;;;;;;;;;5069498;28;20111;-59
2022/05/13 01:52:20;;;;;;;12.02;2.10;;;;;;;;;;5069072;28;20521;-59
2022/05/13 01:54:46;;;;;;;7.28;1.80;;;;;;;;;;5069677;28;20057;-59
2022/05/13 01:57:13;;;;;;;10.80;2.03;;;;;;;;;;5068377;28;20049;-59
2022/05/13 01:59:39;;;;;;;9.15;2.17;;;;;;;;;;5069181;28;20085;-59
2022/05/13 02:02:06;;;;;;;17.40;2.65;;;;;;;;;;5069442;28;20092;-59
2022/05/13 02:04:32;;;;;;;10.60;2.25;;;;;;;;;;5069036;28;20049;-59
2022/05/13 02:06:59;;;;;;;15.15;2.60;;;;;;;;;;5068954;28;20056;-59
2022/05/13 02:09:25;;;;;;;10.95;2.20;;;;;;;;;;5068457;28;20061;-59
2022/05/13 02:11:52;;;;;;;16.25;2.30;;;;;;;;;;5069098;28;20102;-59
2022/05/13 02:14:18;;;;;;;15.82;2.70;;;;;;;;;;5069357;28;20110;-59
2022/05/13 02:16:45;;;;;;;12.75;2.40;;;;;;;;;;5067279;28;20084;-59
2022/05/13 02:19:12;;;;;;;10.73;2.25;;;;;;;;;;5069257;28;20112;-59
2022/05/13 02:21:38;;;;;;;16.67;3.05;;;;;;;;;;5069141;28;20152;-59
2022/05/13 02:24:05;;;;;;;7.43;2.22;;;;;;;;;;5068486;28;20057;-59
2022/05/13 02:26:31;;;;;;;13.82;3.67;;;;;;;;;;5069218;28;20079;-59
2022/05/13 02:29:01;;;;;;;16.88;2.67;;;;;;;;;;5067556;28;20053;-59
2022/05/13 02:31:30;;;;;;;16.20;3.13;;;;;;;;;;5048777;28;20468;-59
2022/05/13 02:33:57;;;;;;;15.85;2.70;;;;;;;;;;5048025;28;20053;-59
2022/05/13 02:36:24;;;;;;;12.23;2.55;;;;;;;;;;5064298;28;20088;-59
2022/05/13 02:38:51;;;;;;;12.45;2.67;;;;;;;;;;5068219;28;20543;-59
2022/05/13 02:41:17;;;;;;;8.75;1.73;;;;;;;;;;5067502;28;20625;-59
2022/05/13 02:43:46;;;;;;;12.70;2.17;;;;;;;;;;5068521;28;20492;-59
2022/05/13 02:46:12;;;;;;;;;;;;;;;;;;5068402;28;20087;-59
2022/05/13 02:48:39;;;;;;;16.48;2.00;;;;;;;;;;5066696;28;46071;-59
2022/05/13 02:51:06;;;;;;;10.25;1.95;;;;;;;;;;5067662;28;20111;-59
2022/05/13 02:53:32;;;;;;;17.30;2.10;;;;;;;;;;5068711;28;20080;-59
2022/05/13 02:55:59;;;;;;;10.90;2.72;;;;;;;;;;5068463;28;20840;-59
2022/05/13 02:58:25;;;;;;;11.48;2.30;;;;;;;;;;5067718;28;20499;-59
2022/05/13 03:00:52;;;;;;;10.32;2.47;;;;;;;;;;5068158;28;20091;-59
2022/05/13 03:03:18;;;;;;;5.32;1.60;;;;;;;;;;5067679;28;20048;-59
2022/05/13 03:05:45;;;;;;;8.82;2.20;;;;;;;;;;5067625;28;20103;-59
2022/05/13 03:08:11;;;;;;;9.27;1.85;;;;;;;;;;5068342;28;20111;-59
2022/05/13 03:10:38;;;;;;;6.43;2.05;;;;;;;;;;5067805;28;20114;-59
2022/05/13 03:13:05;;;;;;;8.98;2.25;;;;;;;;;;5067992;28;20052;-59
2022/05/13 03:15:32;;;;;;;15.23;2.53;;;;;;;;;;5066790;28;20507;-59
2022/05/13 03:17:58;;;;;;;9.77;1.92;;;;;;;;;;5068389;28;20076;-59
2022/05/13 03:20:25;;;;;;;6.47;2.00;;;;;;;;;;5068101;28;20056;-59
2022/05/13 03:22:52;;;;;;;15.15;2.47;;;;;;;;;;5067724;28;20206;-59
2022/05/13 03:25:20;;;;;;;7.35;2.40;;;;;;;;;;5067368;28;20557;-59
2022/05/13 03:27:46;;;;;;;8.00;2.35;;;;;;;;;;5068006;28;20053;-59
2022/05/13 03:30:14;;;;;;;8.25;2.78;;;;;;;;;;5067584;28;20053;-59
2022/05/13 03:32:41;;;;;;;6.68;2.13;;;;;;;;;;5067978;28;20057;-59
2022/05/13 03:35:09;;;;;;;12.88;2.67;;;;;;;;;;5066808;28;20061;-59
2022/05/13 03:37:36;;;;;;;12.68;2.67;;;;;;;;;;5068132;28;20057;-59
2022/05/13 03:40:03;;;;;;;5.43;2.13;;;;;;;;;;5067924;28;20089;-59
2022/05/13 03:42:30;;;;;;;9.35;2.78;;;;;;;;;;5067707;28;20045;-59
2022/05/13 03:44:56;;;;;;;8.98;1.88;;;;;;;;;;5067095;28;20517;-59
2022/05/13 03:47:22;;;;;;;6.93;2.08;;;;;;;;;;5067691;28;20122;-59
2022/05/13 03:49:49;;;;;;;11.13;2.22;;;;;;;;;;5066687;28;20088;-59
2022/05/13 03:52:15;;;;;;;8.73;2.35;;;;;;;;;;5066904;28;20087;-59
2022/05/13 03:54:42;;;;;;;12.35;2.22;;;;;;;;;;5066951;28;20574;-59
2022/05/13 03:57:08;;;;;;;8.52;2.28;;;;;;;;;;5067188;28;20072;-59
2022/05/13 03:59:35;;;;;;;11.00;2.47;;;;;;;;;;5066537;28;20134;-59
2022/05/13 04:02:02;;;;;;;7.40;2.58;;;;;;;;;;5067452;28;20088;-59
2022/05/13 04:04:29;;;;;;;9.40;2.50;;;;;;;;;;5067300;28;20075;-59
2022/05/13 04:09:41;;;;;;;12.07;2.70;;;;;;;;;;5067270;28;20542;-59
2022/05/13 04:17:40;;;;;;;5.38;1.95;;;;;;;;;;5066877;28;20053;-59
2022/05/13 04:20:06;;;;;;;7.75;2.03;;;;;;;;;;5066535;28;20107;-59
2022/05/13 04:22:33;;;;;;;6.80;2.47;;;;;;;;;;5067622;28;20080;-59
2022/05/13 04:25:01;;;;;;;14.02;2.28;;;;;;;;;;5067074;28;20057;-59
2022/05/13 04:27:27;;;;;;;8.77;2.67;;;;;;;;;;5068725;28;20052;-59
2022/05/13 04:29:55;;;;;;;7.55;2.13;;;;;;;;;;5070513;28;20092;-59
2022/05/13 04:32:21;;;;;;;8.55;1.88;;;;;;;;;;5070013;28;20095;-59
2022/05/13 04:34:47;;;;;;;9.93;2.30;;;;;;;;;;5070798;28;20049;-59
2022/05/13 04:37:14;;;;;;;7.03;2.15;;;;;;;;;;5070090;28;20065;-59
2022/05/13 04:39:40;;;;;;;12.13;1.90;;;;;;;;;;5070056;28;20134;-59
2022/05/13 04:44:52;;;;;;;7.85;1.95;;;;;;;;;;5070126;28;20064;-59
2022/05/13 04:50:04;;;;;;;12.05;2.67;;;;;;;;;;5069874;28;20057;-59
2022/05/13 04:52:30;;;;;;;20.00;3.15;;;;;;;;;;5070874;28;20146;-59
2022/05/13 04:54:56;;;;;;;10.13;2.20;;;;;;;;;;5070353;28;20127;-58
2022/05/13 04:57:23;;;;;;;9.65;2.60;;;;;;;;;;5069805;28;20081;-58
2022/05/13 04:59:50;;;;;;;8.85;2.33;;;;;;;;;;5070121;28;20136;-59
2022/05/13 05:02:16;;;;;;;11.40;2.15;;;;;;;;;;5070146;28;20060;-58
2022/05/13 05:04:42;;;;;;;13.30;2.45;;;;;;;;;;5069900;28;20052;-58
2022/05/13 05:07:09;;;;;;;7.60;2.25;;;;;;;;;;5070410;28;20132;-58
2022/05/13 05:09:36;;;;;;;5.43;2.33;;;;;;;;;;5068708;28;20074;-58
2022/05/13 05:12:03;;;;;;;10.68;2.38;;;;;;;;;;5069957;28;20057;-58
2022/05/13 05:14:29;;;;;;;8.00;2.20;;;;;;;;;;5070210;28;20106;-58
2022/05/13 05:16:56;;;;;;;7.47;2.17;;;;;;;;;;5069731;28;20123;-58
2022/05/13 05:19:23;;;;;;;14.23;3.05;;;;;;;;;;5070517;28;20084;-58
2022/05/13 05:21:51;;;;;;;6.95;2.00;;;;;;;;;;5069696;28;20064;-58
2022/05/13 05:24:17;;;;;;;12.15;2.22;;;;;;;;;;5069470;28;20045;-58
2022/05/13 05:26:43;;;;;;;9.32;2.03;;;;;;;;;;5070410;28;20643;-59
2022/05/13 05:29:10;;;;;;;14.05;2.78;;;;;;;;;;5074938;28;20608;-58
2022/05/13 05:31:36;;;;;;;7.38;2.03;;;;;;;;;;5072380;28;20057;-58
2022/05/13 05:34:03;;;;;;;15.18;2.40;;;;;;;;;;5068707;28;20092;-58
2022/05/13 05:36:29;;;;;;;8.13;2.05;;;;;;;;;;5069337;28;20045;-58
2022/05/13 05:38:56;;;;;;;6.45;1.92;;;;;;;;;;5068608;28;20057;-58
2022/05/13 05:41:23;;;;;;;9.93;2.25;;;;;;;;;;5068881;28;20061;-55
2022/05/13 05:43:51;;;;;;;9.68;2.10;;;;;;;;;;5069860;28;20572;-57
2022/05/13 05:46:17;;;;;;;;;;;;;;;;;;5070343;28;20511;-56
2022/05/13 05:48:44;;;;;;;11.77;2.00;;;;;;;;;;5067768;28;46109;-56
2022/05/13 05:51:10;;;;;;;6.03;1.80;;;;;;;;;;5069245;28;20103;-56
2022/05/13 05:59:07;;;;;;;5.93;1.95;;;;;;;;;;5068350;28;20594;-59
2022/05/13 06:01:33;;;;;;;9.60;2.00;;;;;;;;;;5068293;28;20059;-59
2022/05/13 06:04:00;;;;;;;7.65;2.08;;;;;;;;;;5069064;28;20068;-58
2022/05/13 06:06:26;;;;;;;8.55;1.80;;;;;;;;;;5069698;28;20053;-59
2022/05/13 06:08:57;;;;;;;10.20;2.35;;;;;;;;;;5069183;28;20057;-59
2022/05/13 06:11:23;;;;;;;4.15;2.10;;;;;;;;;;5068701;28;20049;-59
2022/05/13 06:13:54;;;;;;;5.10;1.75;;;;;;;;;;5069464;28;20060;-60
2022/05/13 06:16:22;;;;;;;6.30;1.45;;;;;;;;;;5067856;28;20057;-60
2022/05/13 06:18:49;;;;;;;;;;;;;;;;;;5069667;28;20049;-59
2022/05/13 06:21:15;;;;;;;4.65;1.58;;;;;;;;;;5067478;28;46295;-59
2022/05/13 06:23:41;;;;;;;3.40;1.10;;;;;;;;;;5068063;28;20573;-59
2022/05/13 06:26:08;;;;;;;6.10;1.20;;;;;;;;;;5075497;28;20510;-59
2022/05/13 06:28:34;;;;;;;7.40;1.27;;;;;;;;;;5075223;28;20950;-61
2022/05/13 06:31:01;;;;;;;3.85;0.85;;;;;;;;;;5068012;28;20571;-60
2022/05/13 06:33:28;;;;;;;7.20;1.38;;;;;;;;;;5069123;28;20049;-60
2022/05/13 06:35:54;;;;;;;4.15;1.17;;;;;;;;;;5068665;28;20127;-61
2022/05/13 06:38:22;;;;;;;4.40;1.40;;;;;;;;;;5061974;28;20202;-59
2022/05/13 06:40:49;;;;;;;3.33;1.02;;;;;;;;;;5068406;28;20053;-59
2022/05/13 06:43:16;;;;;;;3.08;1.20;;;;;;;;;;5067025;28;20087;-60
2022/05/13 06:45:42;;;;;;;6.28;1.10;;;;;;;;;;5056836;28;20073;-59
2022/05/13 06:48:09;;;;;;;4.10;1.00;;;;;;;;;;5059032;28;20065;-60
2022/05/13 06:50:36;;;;;;;6.88;1.10;;;;;;;;;;5068280;28;20079;-60
2022/05/13 06:53:02;;;;;;;6.28;1.58;;;;;;;;;;5082566;28;20107;-60
2022/05/13 06:55:29;;;;;;;3.63;1.10;;;;;;;;;;5058674;28;20062;-60
2022/05/13 06:57:55;;;;;;;5.25;1.27;;;;;;;;;;5060191;28;20140;-59
2022/05/13 07:00:22;;;;;;;3.35;1.00;;;;;;;;;;5070023;28;20566;-59
2022/05/13 07:02:48;;;;;;;3.13;1.23;;;;;;;;;;5067445;28;20044;-59
2022/05/13 07:05:15;;;;;;;5.75;1.20;;;;;;;;;;5067301;28;20049;-59
2022/05/13 07:07:42;;;;;;;5.10;1.35;;;;;;;;;;5058423;28;20065;-59
2022/05/13 07:10:09;;;;;;;1.98;1.00;;;;;;;;;;5062254;28;20068;-60
2022/05/13 07:12:36;;;;;;;3.58;1.00;;;;;;;;;;5066588;28;20055;-56
2022/05/13 07:15:03;;;;;;;6.82;1.80;;;;;;;;;;5047829;28;20053;-59
2022/05/13 07:17:30;;;;;;;8.82;1.40;;;;;;;;;;5055909;28;20134;-59
2022/05/13 07:19:56;;;;;;;6.25;1.42;;;;;;;;;;5067835;28;20057;-59
2022/05/13 07:22:23;;;;;;;7.25;1.20;;;;;;;;;;5065694;28;20052;-59
2022/05/13 07:24:51;;;;;;;5.63;1.05;;;;;;;;;;5048213;28;20053;-59
2022/05/13 07:27:18;;;;;;;3.63;1.10;;;;;;;;;;5048177;28;20085;-59
2022/05/13 07:29:44;;;;;;;5.20;1.02;;;;;;;;;;5057350;28;20203;-59
2022/05/13 07:32:10;;;;;;;3.95;1.25;;;;;;;;;;5057547;28;20139;-59
2022/05/13 07:34:37;;;;;;;3.60;1.05;;;;;;;;;;5067995;28;20504;-59
2022/05/13 07:37:03;;;;;;;6.65;1.45;;;;;;;;;;5067082;28;20079;-59
2022/05/13 07:42:15;;;;;;;4.93;1.20;;;;;;;;;;5062073;28;20104;-59
2022/05/13 07:44:42;;;;;;;3.83;1.20;;;;;;;;;;5056131;28;20049;-59
2022/05/13 07:47:09;;;;;;;3.95;1.17;;;;;;;;;;5058826;28;20053;-58
2022/05/13 07:49:37;;;;;;;5.07;1.55;;;;;;;;;;5067555;28;20053;-59
2022/05/13 07:52:04;;;;;;;4.40;1.15;;;;;;;;;;5065949;28;20339;-58
2022/05/13 07:54:30;;;;;;;2.80;1.00;;;;;;;;;;5069703;28;20057;-58
2022/05/13 07:56:57;;;;;;;8.05;1.60;;;;;;;;;;5086941;28;20048;-59
2022/05/13 07:59:23;;;;;;;6.07;1.48;;;;;;;;;;5072175;28;20203;-58
2022/05/13 08:01:50;;;;;;;6.63;1.02;;;;;;;;;;5067682;28;20053;-59
2022/05/13 08:04:16;;;;;;;8.65;1.08;;;;;;;;;;5071413;28;20057;-58
2022/05/13 08:06:44;;;;;;;1.85;0.82;;;;;;;;;;5062108;28;20049;-59
2022/05/13 08:09:11;;;;;;;9.73;1.35;;;;;;;;;;5064718;28;20055;-59
2022/05/13 08:11:38;;;;;;;3.47;1.30;;;;;;;;;;5072415;28;20520;-59
2022/05/13 08:14:06;;;;;;;6.97;0.85;;;;;;;;;;5053896;28;20057;-58
2022/05/13 08:16:33;;;;;;;3.70;1.00;;;;;;;;;;5054618;28;20058;-59
2022/05/13 08:19:02;;;;;;;4.55;1.40;;;;;;;;;;5070383;28;20549;-58
2022/05/13 08:21:28;;;;;;;5.78;1.10;;;;;;;;;;5081451;28;20060;-59
2022/05/13 08:23:55;;;;;;;7.05;0.85;;;;;;;;;;5071272;28;20602;-58
2022/05/13 08:26:21;;;;;;;2.83;1.02;;;;;;;;;;5093541;28;20581;-58
2022/05/13 08:28:47;;;;;;;3.45;1.10;;;;;;;;;;5089113;28;20050;-58
2022/05/13 08:31:14;;;;;;;6.80;0.93;;;;;;;;;;5073838;28;20104;-58
2022/05/13 08:33:41;;;;;;;1.27;0.50;;;;;;;;;;5064339;28;20064;-59
2022/05/13 08:36:13;;;;;;;3.20;1.13;;;;;;;;;;5070899;28;20057;-58
2022/05/13 08:38:40;;;;;;;5.43;1.00;;;;;;;;;;5083772;28;20052;-58
2022/05/13 08:41:10;;;;;;;4.63;0.90;;;;;;;;;;5073763;28;20527;-59
2022/05/13 08:43:45;;;;;;;6.30;1.10;;;;;;;;;;5073587;28;20056;-59
2022/05/13 08:46:32;;;;;;;5.82;1.38;;;;;;;;;;5073491;28;20207;-59
2022/05/13 08:48:59;;;;;;;5.30;0.70;;;;;;;;;;5066289;28;20515;-59
2022/05/13 08:51:47;;;;;;;4.25;0.95;;;;;;;;;;5053642;28;20920;-59
2022/05/13 08:54:18;;;;;;;4.45;1.10;;;;;;;;;;5054349;28;20053;-58
2022/05/13 08:56:48;;;;;;;3.42;1.25;;;;;;;;;;5053630;28;20119;-59
2022/05/13 08:59:20;;;;;;;2.65;1.05;;;;;;;;;;5053500;28;20045;-59
2022/05/13 09:01:49;;;;;;;6.20;1.02;;;;;;;;;;5066422;28;20096;-59
2022/05/13 09:04:38;;;;;;;3.53;1.10;;;;;;;;;;5073126;28;20049;-59
2022/05/13 09:07:07;;;;;;;2.05;0.85;;;;;;;;;;5060583;28;20557;-59
2022/05/13 09:09:34;;;;;;;4.47;1.20;;;;;;;;;;5054064;28;20132;-59
2022/05/13 09:12:03;;;;;;;5.28;1.20;;;;;;;;;;5053072;28;20142;-59
2022/05/13 09:14:57;;;;;;;7.93;1.02;;;;;;;;;;5049687;28;20113;-59
2022/05/13 09:18:00;;;;;;;7.13;1.05;;;;;;;;;;5049677;28;20600;-59
2022/05/13 09:20:40;;;;;;;5.63;1.30;;;;;;;;;;4988841;28;20054;-59
2022/05/13 09:23:09;;;;;;;4.88;1.15;;;;;;;;;;5044567;28;20057;-59
2022/05/13 09:25:41;;;;;;;5.72;0.95;;;;;;;;;;5069758;28;20049;-59
2022/05/13 09:28:13;;;;;;;2.42;0.80;;;;;;;;;;5069814;28;20554;-59
2022/05/13 09:30:41;;;;;;;2.47;0.93;;;;;;;;;;5073615;28;20122;-59
2022/05/13 09:33:17;;;;;;;3.75;0.75;;;;;;;;;;5066897;28;20674;-59
2022/05/13 09:35:43;;;;;;;3.63;1.02;;;;;;;;;;5058773;28;20557;-58
2022/05/13 09:38:14;;;;;;;4.78;0.90;;;;;;;;;;5058428;28;20114;-58
2022/05/13 09:40:40;;;;;;;11.07;1.45;;;;;;;;;;5050860;28;20058;-59
2022/05/13 09:43:07;;;;;;;3.95;1.10;;;;;;;;;;5048533;28;20057;-58
2022/05/13 09:45:33;;;;;;;10.30;1.58;;;;;;;;;;5049375;28;20080;-58
2022/05/13 09:48:11;;;;;;;3.95;0.90;;;;;;;;;;5048987;28;20953;-58
2022/05/13 09:50:41;;;;;;;4.35;0.90;;;;;;;;;;5048858;28;20058;-58
2022/05/13 09:53:25;;;;;;;4.10;0.80;;;;;;;;;;5048985;28;20531;-59
2022/05/13 09:55:53;;;;;;;3.28;0.95;;;;;;;;;;5049177;28;20115;-58
2022/05/13 09:58:21;;;;;;;2.40;0.80;;;;;;;;;;5048702;28;20488;-59
2022/05/13 10:00:48;;;;;;;6.30;1.60;;;;;;;;;;5051568;28;20574;-59
2022/05/13 10:03:18;;;;;;;4.10;1.15;;;;;;;;;;5067279;28;20057;-58
2022/05/13 10:06:08;;;;;;;3.90;0.90;;;;;;;;;;5060701;28;20053;-59
2022/05/13 10:08:48;;;;;;;2.95;0.63;;;;;;;;;;5038779;28;20602;-59
2022/05/13 10:14:05;;;;;;;6.90;1.70;;;;;;;;;;5068209;28;20084;-59
2022/05/13 10:16:44;;;;;;;1.98;0.77;;;;;;;;;;5049232;28;20049;-59
2022/05/13 10:19:19;;;;;;;7.10;1.40;;;;;;;;;;5049131;28;20569;-59
2022/05/13 10:21:50;;;;;;;5.32;1.15;;;;;;;;;;5066804;28;20087;-59
2022/05/13 10:24:22;;;;;;;8.52;1.33;;;;;;;;;;5068263;28;20135;-59
2022/05/13 10:26:49;;;;;;;5.10;1.15;;;;;;;;;;5068886;28;20519;-59
2022/05/13 10:29:39;;;;;;;3.08;0.93;;;;;;;;;;5069114;28;20057;-59
2022/05/13 10:32:11;;;;;;;1.15;0.73;;;;;;;;;;5067676;28;20134;-59
2022/05/13 10:34:40;;;;;;;5.13;1.27;;;;;;;;;;5053772;28;20057;-59
2022/05/13 10:37:13;;;;;;;8.77;1.17;;;;;;;;;;5054883;28;20057;-59
2022/05/13 10:39:52;;;;;;;3.92;1.52;;;;;;;;;;5067902;28;20597;-59
2022/05/13 10:42:24;;;;;;;3.03;0.70;;;;;;;;;;5068651;28;20049;-59
2022/05/13 10:45:17;;;;;;;3.60;1.27;;;;;;;;;;5069010;28;20057;-60
2022/05/13 10:48:00;;;;;;;3.65;1.08;;;;;;;;;;5065741;28;20446;-59
2022/05/13 10:50:41;;;;;;;3.70;1.40;;;;;;;;;;5048387;28;20115;-59
2022/05/13 10:53:15;;;;;;;2.47;1.13;;;;;;;;;;5048964;28;20143;-59
2022/05/13 10:55:58;;;;;;;5.57;1.20;;;;;;;;;;5048174;28;20049;-59
2022/05/13 10:58:25;;;;;;;2.95;0.80;;;;;;;;;;5048035;28;20085;-60
2022/05/13 11:01:10;;;;;;;4.90;1.27;;;;;;;;;;5047727;28;20050;-59
2022/05/13 11:03:55;;;;;;;4.25;1.23;;;;;;;;;;5048725;28;20179;-59
2022/05/13 11:06:29;;;;;;;10.45;1.27;;;;;;;;;;5059751;28;20110;-59
2022/05/13 11:09:06;;;;;;;4.57;1.10;;;;;;;;;;5067198;28;20099;-59
2022/05/13 11:11:37;;;;;;;7.53;1.25;;;;;;;;;;5066639;28;20053;-59
2022/05/13 11:14:15;;;;;;;4.88;1.35;;;;;;;;;;5067752;28;20061;-60
2022/05/13 11:16:46;;;;;;;2.13;0.98;;;;;;;;;;5067724;28;20057;-59
2022/05/13 11:19:24;;;;;;;4.00;1.15;;;;;;;;;;5067733;28;20152;-59
2022/05/13 11:21:53;;;;;;;2.92;0.90;;;;;;;;;;5068190;28;20131;-60
2022/05/13 11:27:33;;;;;;;6.70;1.30;;;;;;;;;;5067280;28;20053;-60
2022/05/13 11:30:12;;;;;;;3.20;1.02;;;;;;;;;;5067141;28;20053;-59
2022/05/13 11:32:45;;;;;;;11.63;1.58;;;;;;;;;;5067773;28;20146;-60
2022/05/13 11:35:37;;;;;;;2.42;0.80;;;;;;;;;;5067320;28;20515;-59
2022/05/13 11:38:08;;;;;;;3.08;1.30;;;;;;;;;;5030629;28;20569;-60
2022/05/13 11:40:46;;;;;;;3.58;1.00;;;;;;;;;;5066914;28;20049;-60
2022/05/13 11:43:42;;;;;;;4.80;1.25;;;;;;;;;;5067550;28;20151;-59
2022/05/13 11:46:20;;;;;;;8.13;1.23;;;;;;;;;;5067434;28;20056;-59
2022/05/13 11:48:47;;;;;;;3.25;1.10;;;;;;;;;;5067563;28;20482;-60
2022/05/13 11:51:16;;;;;;;3.87;1.27;;;;;;;;;;5067458;28;20565;-61
2022/05/13 11:53:51;;;;;;;3.90;1.30;;;;;;;;;;5066707;28;20099;-60
2022/05/13 11:56:31;;;;;;;4.65;1.08;;;;;;;;;;5064437;28;20058;-60
2022/05/13 11:59:21;;;;;;;2.05;0.98;;;;;;;;;;5046774;28;20083;-60
2022/05/13 12:01:48;;;;;;;2.20;0.88;;;;;;;;;;5036585;28;20564;-60
2022/05/13 12:04:15;;;;;;;1.80;0.90;;;;;;;;;;5047320;28;20053;-59
2022/05/13 12:06:47;;;;;;;7.05;1.50;;;;;;;;;;5050200;28;20538;-59
2022/05/13 12:09:14;;;;;;;5.05;1.10;;;;;;;;;;5067686;28;20045;-59
2022/05/13 12:11:48;;;;;;;3.55;1.02;;;;;;;;;;5068157;28;20649;-59
2022/05/13 12:14:47;;;;;;;4.00;1.63;;;;;;;;;;5056875;28;20045;-60
2022/05/13 12:17:32;;;;;;;2.28;0.85;;;;;;;;;;5002660;28;20119;-60
2022/05/13 12:20:18;;;;;;;2.30;0.98;;;;;;;;;;5046678;28;20578;-59
2022/05/13 12:23:08;;;;;;;5.60;1.10;;;;;;;;;;5047508;28;20077;-59
2022/05/13 12:25:34;;;;;;;3.17;1.00;;;;;;;;;;5056614;28;20053;-59
2022/05/13 12:28:03;;;;;;;7.88;1.98;;;;;;;;;;5066837;28;20099;-60
2022/05/13 12:30:32;;;;;;;6.13;1.17;;;;;;;;;;5063162;28;20107;-59
2022/05/13 12:33:17;;;;;;;2.13;0.88;;;;;;;;;;5047303;28;20144;-60
2022/05/13 12:38:32;;;;;;;3.30;0.80;;;;;;;;;;5046717;28;20057;-59
2022/05/13 12:41:12;;;;;;;2.83;1.05;;;;;;;;;;5047435;28;20057;-60
2022/05/13 12:43:51;;;;;;;4.30;0.98;;;;;;;;;;5046847;28;20054;-59
2022/05/13 12:46:18;;;;;;;6.10;0.80;;;;;;;;;;5045951;28;20120;-60
2022/05/13 12:49:05;;;;;;;6.43;0.75;;;;;;;;;;5062112;28;20053;-60
2022/05/13 12:51:34;;;;;;;3.63;0.82;;;;;;;;;;5070263;28;20053;-60
2022/05/13 12:54:03;;;;;;;2.55;0.80;;;;;;;;;;5069984;28;20137;-60
2022/05/13 12:56:33;;;;;;;3.28;0.98;;;;;;;;;;5070603;28;20085;-59
2022/05/13 12:59:02;;;;;;;2.15;0.93;;;;;;;;;;5070214;28;20115;-60
2022/05/13 13:01:29;;;;;;;3.05;1.02;;;;;;;;;;5070337;28;20053;-59
2022/05/13 13:03:56;;;;;;;5.72;0.90;;;;;;;;;;5070231;28;20053;-59
2022/05/13 13:06:23;;;;;;;2.13;0.77;;;;;;;;;;5069578;28;20053;-59
2022/05/13 13:08:51;;;;;;;6.10;1.02;;;;;;;;;;5070299;28;20053;-60
2022/05/13 13:11:24;;;;;;;4.97;0.90;;;;;;;;;;5069860;28;20045;-59
2022/05/13 13:13:50;;;;;;;2.92;1.13;;;;;;;;;;5070067;28;20107;-59
2022/05/13 13:16:22;;;;;;;3.42;1.00;;;;;;;;;;5069793;28;20056;-60
2022/05/13 13:19:03;;;;;;;1.80;0.85;;;;;;;;;;5070191;28;20057;-59
2022/05/13 13:21:30;;;;;;;6.57;1.10;;;;;;;;;;5069392;28;20076;-60
2022/05/13 13:23:56;;;;;;;2.42;0.93;;;;;;;;;;5069690;28;20488;-60
2022/05/13 13:26:23;;;;;;;4.78;1.25;;;;;;;;;;5069761;28;20112;-60
2022/05/13 13:28:52;;;;;;;3.55;0.88;;;;;;;;;;5070097;28;20578;-60
2022/05/13 13:31:25;;;;;;;3.13;1.10;;;;;;;;;;5069682;28;20055;-60
2022/05/13 13:33:54;;;;;;;5.13;1.10;;;;;;;;;;5069800;28;20117;-59
2022/05/13 13:36:20;;;;;;;;;;;;;;;;;;5051845;28;20562;-60
2022/05/13 13:38:51;;;;;;;3.60;1.05;;;;;;;;;;5049012;28;44507;-60
2022/05/13 13:41:29;;;;;;;1.80;0.90;;;;;;;;;;5052045;28;20061;-60
2022/05/13 13:43:57;;;;;;;4.05;1.20;;;;;;;;;;5069370;28;20111;-60
2022/05/13 13:46:27;;;;;;;8.38;1.30;;;;;;;;;;5069612;28;20107;-60
2022/05/13 13:48:55;;;;;;;1.83;0.70;;;;;;;;;;5067493;28;20063;-60
2022/05/13 13:51:29;;;;;;;5.82;1.05;;;;;;;;;;5058483;28;20549;-61
2022/05/13 13:53:58;;;;;;;3.63;1.02;;;;;;;;;;5069800;28;20479;-59
2022/05/13 13:56:24;;;;;;;9.48;1.40;;;;;;;;;;5057715;28;20583;-60
2022/05/13 13:58:54;;;;;;;2.60;0.90;;;;;;;;;;5049436;28;20053;-58
2022/05/13 14:01:26;;;;;;;4.90;1.50;;;;;;;;;;5048086;28;20092;-60
2022/05/13 14:04:03;;;;;;;6.50;1.20;;;;;;;;;;5049871;28;20057;-59
2022/05/13 14:06:29;;;;;;;4.40;1.20;;;;;;;;;;5049853;28;20562;-58
2022/05/13 14:08:56;;;;;;;6.05;1.30;;;;;;;;;;5068220;28;20080;-57
2022/05/13 14:11:24;;;;;;;3.67;1.25;;;;;;;;;;5069394;28;20541;-57
2022/05/13 14:14:10;;;;;;;6.05;1.55;;;;;;;;;;5051166;28;20145;-56
2022/05/13 14:16:54;;;;;;;4.30;1.45;;;;;;;;;;5048779;28;20100;-56
2022/05/13 14:19:22;;;;;;;5.82;1.48;;;;;;;;;;5049191;28;20141;-57
2022/05/13 14:21:48;;;;;;;;;;;;;;;;;;5048983;28;20053;-57
2022/05/13 14:24:14;;;;;;;3.38;1.08;;;;;;;;;;5048206;28;45121;-56
2022/05/13 14:26:49;;;;;;;2.28;1.00;;;;;;;;;;5049205;28;20520;-59
2022/05/13 14:29:17;;;;;;;3.63;1.20;;;;;;;;;;5049355;28;20973;-58
2022/05/13 14:31:44;;;;;;;;;;;;;;;;;;5048983;28;20100;-60
2022/05/13 14:34:20;;;;;;;4.05;1.40;;;;;;;;;;5064350;28;45018;-58
2022/05/13 14:36:48;;;;;;;3.08;1.30;;;;;;;;;;5068874;28;20094;-58
2022/05/13 14:42:03;;;;;;;7.72;1.50;;;;;;;;;;5049094;28;20061;-57
2022/05/13 14:44:36;;;;;;;4.43;1.55;;;;;;;;;;5061087;28;20079;-57
2022/05/13 14:47:05;;;;;;;3.58;1.20;;;;;;;;;;5060037;28;20050;-56
2022/05/13 14:49:53;;;;;;;3.95;1.50;;;;;;;;;;5048539;28;20054;-57
2022/05/13 14:52:19;;;;;;;4.90;1.20;;;;;;;;;;5052507;28;20491;-56
2022/05/13 14:54:46;;;;;;;6.45;1.70;;;;;;;;;;5069335;28;20111;-59
2022/05/13 14:57:12;;;;;;;4.53;1.65;;;;;;;;;;5065829;28;20060;-58
2022/05/13 14:59:50;;;;;;;6.85;1.40;;;;;;;;;;5048340;28;20082;-58
2022/05/13 15:02:46;;;;;;;2.65;1.00;;;;;;;;;;5048097;28;20115;-57
2022/05/13 15:05:28;;;;;;;6.00;1.30;;;;;;;;;;5047016;28;20056;-58
2022/05/13 15:07:56;;;;;;;5.65;1.35;;;;;;;;;;5047972;28;20554;-58
2022/05/13 15:10:24;;;;;;;4.28;1.05;;;;;;;;;;5049229;28;20112;-58
2022/05/13 15:12:51;;;;;;;6.93;1.60;;;;;;;;;;5064056;28;20480;-58
2022/05/13 15:15:18;;;;;;;7.05;1.80;;;;;;;;;;5061219;28;20559;-58
2022/05/13 15:17:55;;;;;;;2.58;1.05;;;;;;;;;;5047595;28;20053;-59
2022/05/13 15:20:23;;;;;;;5.13;1.35;;;;;;;;;;5051537;28;20136;-59
2022/05/13 15:22:50;;;;;;;4.90;1.35;;;;;;;;;;5068955;28;20088;-57
2022/05/13 15:25:16;;;;;;;6.25;1.65;;;;;;;;;;5068093;28;20073;-59
2022/05/13 15:27:43;;;;;;;6.85;1.45;;;;;;;;;;5065383;28;20483;-57
2022/05/13 15:30:10;;;;;;;3.63;1.23;;;;;;;;;;5052324;28;20111;-58
2022/05/13 15:32:37;;;;;;;3.57;1.40;;;;;;;;;;5054445;28;20110;-58
2022/05/13 15:35:04;;;;;;;4.25;1.20;;;;;;;;;;5060674;28;20057;-56